Weather at Narita International Airport

Public forecast

Using degrees Celsius for public forecast. Weather courtesy of forecast.io.

Current aviation weather report (METAR) for Narita International Airport

Retrieved 2021/03/02 18:30 UTC (0 seconds ago):

RJAA 021830Z 36006KT 9999 FEW020 BKN040 06/01 Q1017 NOSIG

Aviation forecast (TAF) for Narita International Airport

Retrieved 2021/03/02 12:33 UTC (6 hours ago):

TAF RJAA 021105Z 0212/0318 35012KT 9999 FEW030 SCT045 BECMG 0306/0309 08005KT BECMG 0312/0315 34005KT